sensor_id;sensor_type;location;lat;lon;timestamp;pressure;altitude;pressure_sealevel;temperature;humidity
61906;BME280;47863;55.766;37.672;2024-02-16T00:02:05;101577.94;;;-9.01;86.53
61906;BME280;47863;55.766;37.672;2024-02-16T00:04:31;101591.81;;;-8.93;86.93
61906;BME280;47863;55.766;37.672;2024-02-16T00:06:57;101565.78;;;-9.08;86.41
61906;BME280;47863;55.766;37.672;2024-02-16T00:09:22;101586.59;;;-8.93;86.11
61906;BME280;47863;55.766;37.672;2024-02-16T00:11:48;101594.44;;;-8.88;87.11
61906;BME280;47863;55.766;37.672;2024-02-16T00:14:16;101585.72;;;-8.97;86.63
61906;BME280;47863;55.766;37.672;2024-02-16T00:16:41;101588.38;;;-8.90;86.31
61906;BME280;47863;55.766;37.672;2024-02-16T00:19:06;101583.19;;;-8.87;87.50
61906;BME280;47863;55.766;37.672;2024-02-16T00:21:32;101575.34;;;-8.97;88.38
61906;BME280;47863;55.766;37.672;2024-02-16T00:23:57;101581.44;;;-8.90;88.40
61906;BME280;47863;55.766;37.672;2024-02-16T00:26:23;101553.66;;;-9.11;87.80
61906;BME280;47863;55.766;37.672;2024-02-16T00:28:49;101563.22;;;-9.02;87.15
61906;BME280;47863;55.766;37.672;2024-02-16T00:31:14;101560.59;;;-9.07;86.90
61906;BME280;47863;55.766;37.672;2024-02-16T00:33:40;101509.47;;;-9.29;86.68
61906;BME280;47863;55.766;37.672;2024-02-16T00:36:06;101576.25;;;-8.91;86.40
61906;BME280;47863;55.766;37.672;2024-02-16T00:38:32;101563.22;;;-9.02;86.35
61906;BME280;47863;55.766;37.672;2024-02-16T00:40:58;101575.38;;;-8.90;87.00
61906;BME280;47863;55.766;37.672;2024-02-16T00:43:23;101550.22;;;-9.01;86.47
61906;BME280;47863;55.766;37.672;2024-02-16T00:45:49;101565.00;;;-8.87;85.97
61906;BME280;47863;55.766;37.672;2024-02-16T00:48:14;101527.72;;;-9.08;86.27
61906;BME280;47863;55.766;37.672;2024-02-16T00:50:40;101561.53;;;-8.89;86.00
61906;BME280;47863;55.766;37.672;2024-02-16T00:53:07;101556.34;;;-8.88;85.59
61906;BME280;47863;55.766;37.672;2024-02-16T00:55:33;101535.53;;;-8.99;86.21
61906;BME280;47863;55.766;37.672;2024-02-16T00:57:58;101565.88;;;-8.84;85.58
61906;BME280;47863;55.766;37.672;2024-02-16T01:00:24;101532.91;;;-9.05;85.42
61906;BME280;47863;55.766;37.672;2024-02-16T01:02:49;101565.00;;;-8.90;84.78
61906;BME280;47863;55.766;37.672;2024-02-16T01:05:15;101571.91;;;-8.89;84.78
61906;BME280;47863;55.766;37.672;2024-02-16T01:07:43;101557.19;;;-8.89;85.69
61906;BME280;47863;55.766;37.672;2024-02-16T01:10:09;101561.56;;;-8.86;86.39
61906;BME280;47863;55.766;37.672;2024-02-16T01:12:35;101577.13;;;-8.82;86.82
61906;BME280;47863;55.766;37.672;2024-02-16T01:15:00;101583.19;;;-8.83;86.13
61906;BME280;47863;55.766;37.672;2024-02-16T01:17:26;101576.31;;;-8.74;87.15
61906;BME280;47863;55.766;37.672;2024-02-16T01:19:51;101571.97;;;-8.80;86.88
61906;BME280;47863;55.766;37.672;2024-02-16T01:22:17;101558.03;;;-8.94;86.94
61906;BME280;47863;55.766;37.672;2024-02-16T01:24:43;101577.13;;;-8.82;87.09
61906;BME280;47863;55.766;37.672;2024-02-16T01:27:09;101528.56;;;-9.09;86.85
61906;BME280;47863;55.766;37.672;2024-02-16T01:29:36;101538.09;;;-9.05;86.41
61906;BME280;47863;55.766;37.672;2024-02-16T01:32:02;101566.69;;;-8.95;87.20
61906;BME280;47863;55.766;37.672;2024-02-16T01:34:28;101564.09;;;-9.00;86.16
61906;BME280;47863;55.766;37.672;2024-02-16T01:36:55;101576.25;;;-8.91;86.75
61906;BME280;47863;55.766;37.672;2024-02-16T01:39:21;101572.78;;;-8.90;85.79
61906;BME280;47863;55.766;37.672;2024-02-16T01:41:46;101528.56;;;-9.07;86.11
61906;BME280;47863;55.766;37.672;2024-02-16T01:44:12;101507.78;;;-9.18;86.64
61906;BME280;47863;55.766;37.672;2024-02-16T01:46:37;101555.50;;;-8.88;86.06
61906;BME280;47863;55.766;37.672;2024-02-16T01:49:03;101552.00;;;-8.98;86.39
61906;BME280;47863;55.766;37.672;2024-02-16T01:51:29;101557.19;;;-8.93;86.13
61906;BME280;47863;55.766;37.672;2024-02-16T01:53:55;101537.22;;;-9.07;86.58
61906;BME280;47863;55.766;37.672;2024-02-16T01:56:21;101533.75;;;-9.09;86.54
61906;BME280;47863;55.766;37.672;2024-02-16T01:58:48;101525.09;;;-9.14;86.59
61906;BME280;47863;55.766;37.672;2024-02-16T02:01:13;101552.84;;;-8.98;86.53
61906;BME280;47863;55.766;37.672;2024-02-16T02:03:39;101552.84;;;-8.96;86.92
61906;BME280;47863;55.766;37.672;2024-02-16T02:06:05;101552.84;;;-8.94;86.49
61906;BME280;47863;55.766;37.672;2024-02-16T02:08:31;101529.44;;;-9.07;86.63
61906;BME280;47863;55.766;37.672;2024-02-16T02:10:56;101544.19;;;-8.97;87.07
61906;BME280;47863;55.766;37.672;2024-02-16T02:13:22;101557.16;;;-8.97;86.24
61906;BME280;47863;55.766;37.672;2024-02-16T02:15:47;101516.44;;;-9.13;87.53
61906;BME280;47863;55.766;37.672;2024-02-16T02:18:13;101539.00;;;-9.00;87.55
61906;BME280;47863;55.766;37.672;2024-02-16T02:20:39;101549.38;;;-9.00;87.01
61906;BME280;47863;55.766;37.672;2024-02-16T02:23:05;101535.50;;;-9.03;87.49
61906;BME280;47863;55.766;37.672;2024-02-16T02:25:30;101539.00;;;-9.00;87.75
61906;BME280;47863;55.766;37.672;2024-02-16T02:27:56;101528.56;;;-9.10;87.33
61906;BME280;47863;55.766;37.672;2024-02-16T02:30:22;101530.34;;;-9.02;87.60
61906;BME280;47863;55.766;37.672;2024-02-16T02:32:49;101551.97;;;-8.95;87.54
61906;BME280;47863;55.766;37.672;2024-02-16T02:35:16;101562.38;;;-8.98;86.94
61906;BME280;47863;55.766;37.672;2024-02-16T02:37:43;101541.56;;;-9.01;87.01
61906;BME280;47863;55.766;37.672;2024-02-16T02:40:09;101518.16;;;-9.10;87.02
61906;BME280;47863;55.766;37.672;2024-02-16T02:42:35;101555.47;;;-8.87;86.78
61906;BME280;47863;55.766;37.672;2024-02-16T02:45:03;101530.34;;;-9.02;86.47
61906;BME280;47863;55.766;37.672;2024-02-16T02:47:29;101510.38;;;-9.10;86.76
61906;BME280;47863;55.766;37.672;2024-02-16T02:49:54;101550.28;;;-8.88;86.30
61906;BME280;47863;55.766;37.672;2024-02-16T02:52:21;101533.78;;;-9.01;86.60
61906;BME280;47863;55.766;37.672;2024-02-16T02:54:47;101557.19;;;-8.92;86.35
61906;BME280;47863;55.766;37.672;2024-02-16T02:57:12;101536.41;;;-8.98;85.98
61906;BME280;47863;55.766;37.672;2024-02-16T02:59:38;101526.84;;;-9.07;86.82
61906;BME280;47863;55.766;37.672;2024-02-16T03:02:04;101559.81;;;-8.86;85.89
61906;BME280;47863;55.766;37.672;2024-02-16T03:04:29;101560.69;;;-8.88;85.38
61906;BME280;47863;55.766;37.672;2024-02-16T03:06:54;101553.75;;;-8.88;86.18
61906;BME280;47863;55.766;37.672;2024-02-16T03:09:20;101560.69;;;-8.81;85.46
61906;BME280;47863;55.766;37.672;2024-02-16T03:11:45;101542.50;;;-8.85;85.20
61906;BME280;47863;55.766;37.672;2024-02-16T03:14:11;101553.78;;;-8.75;85.50
61906;BME280;47863;55.766;37.672;2024-02-16T03:16:37;101544.25;;;-8.78;85.89
61906;BME280;47863;55.766;37.672;2024-02-16T03:19:06;101557.28;;;-8.70;85.89
61906;BME280;47863;55.766;37.672;2024-02-16T03:21:34;101567.66;;;-8.66;86.36
61906;BME280;47863;55.766;37.672;2024-02-16T03:24:01;101576.31;;;-8.70;86.93
61906;BME280;47863;55.766;37.672;2024-02-16T03:26:26;101550.28;;;-8.87;86.41
61906;BME280;47863;55.766;37.672;2024-02-16T03:28:52;101552.88;;;-8.91;86.31
61906;BME280;47863;55.766;37.672;2024-02-16T03:31:23;101539.88;;;-8.98;86.44
61906;BME280;47863;55.766;37.672;2024-02-16T03:33:52;101575.38;;;-8.83;86.51
61906;BME280;47863;55.766;37.672;2024-02-16T03:36:18;101578.91;;;-8.71;86.42
61906;BME280;47863;55.766;37.672;2024-02-16T03:38:45;101543.34;;;-8.94;85.77
61906;BME280;47863;55.766;37.672;2024-02-16T03:41:13;101578.91;;;-8.70;86.48
61906;BME280;47863;55.766;37.672;2024-02-16T03:43:39;101554.59;;;-8.93;86.14
61906;BME280;47863;55.766;37.672;2024-02-16T03:46:05;101590.16;;;-8.72;85.73
61906;BME280;47863;55.766;37.672;2024-02-16T03:48:30;101547.66;;;-8.94;85.76
61906;BME280;47863;55.766;37.672;2024-02-16T03:50:56;101569.34;;;-8.77;85.71
61906;BME280;47863;55.766;37.672;2024-02-16T03:53:22;101541.59;;;-8.93;85.90
61906;BME280;47863;55.766;37.672;2024-02-16T03:55:48;101565.06;;;-8.70;86.07
61906;BME280;47863;55.766;37.672;2024-02-16T03:58:15;101524.28;;;-8.93;85.47
61906;BME280;47863;55.766;37.672;2024-02-16T04:00:42;101520.81;;;-8.98;85.35
61906;BME280;47863;55.766;37.672;2024-02-16T04:03:07;101574.56;;;-8.75;85.48
61906;BME280;47863;55.766;37.672;2024-02-16T04:05:35;101555.50;;;-8.84;86.57
61906;BME280;47863;55.766;37.672;2024-02-16T04:08:00;101564.16;;;-8.75;86.24
61906;BME280;47863;55.766;37.672;2024-02-16T04:10:29;101559.84;;;-8.76;86.58
61906;BME280;47863;55.766;37.672;2024-02-16T04:12:54;101568.50;;;-8.82;86.31
61906;BME280;47863;55.766;37.672;2024-02-16T04:15:20;101558.06;;;-8.87;86.46
61906;BME280;47863;55.766;37.672;2024-02-16T04:17:45;101542.44;;;-8.99;86.07
61906;BME280;47863;55.766;37.672;2024-02-16T04:20:11;101530.34;;;-9.02;86.45
61906;BME280;47863;55.766;37.672;2024-02-16T04:22:36;101525.13;;;-9.05;86.36
61906;BME280;47863;55.766;37.672;2024-02-16T04:25:04;101563.28;;;-8.79;85.93
61906;BME280;47863;55.766;37.672;2024-02-16T04:27:30;101552.06;;;-8.78;85.76
61906;BME280;47863;55.766;37.672;2024-02-16T04:29:55;101519.06;;;-8.99;86.02
61906;BME280;47863;55.766;37.672;2024-02-16T04:32:21;101539.88;;;-8.91;85.64
61906;BME280;47863;55.766;37.672;2024-02-16T04:34:46;101551.19;;;-8.80;86.14
61906;BME280;47863;55.766;37.672;2024-02-16T04:37:15;101545.97;;;-8.86;85.89
61906;BME280;47863;55.766;37.672;2024-02-16T04:39:40;101540.75;;;-8.83;85.75
61906;BME280;47863;55.766;37.672;2024-02-16T04:42:06;101554.63;;;-8.84;86.00
61906;BME280;47863;55.766;37.672;2024-02-16T04:44:31;101525.13;;;-9.02;85.80
61906;BME280;47863;55.766;37.672;2024-02-16T04:46:57;101539.88;;;-8.93;86.45
61906;BME280;47863;55.766;37.672;2024-02-16T04:49:22;101540.75;;;-8.91;86.12
61906;BME280;47863;55.766;37.672;2024-02-16T04:51:48;101554.66;;;-8.76;85.87
61906;BME280;47863;55.766;37.672;2024-02-16T04:54:14;101537.31;;;-8.88;86.87
61906;BME280;47863;55.766;37.672;2024-02-16T04:56:39;101515.63;;;-8.98;86.90
61906;BME280;47863;55.766;37.672;2024-02-16T04:59:05;101533.84;;;-8.87;86.80
61906;BME280;47863;55.766;37.672;2024-02-16T05:01:31;101566.75;;;-8.80;86.09
61906;BME280;47863;55.766;37.672;2024-02-16T05:03:58;101494.78;;;-9.17;86.49
61906;BME280;47863;55.766;37.672;2024-02-16T05:06:25;101479.22;;;-9.18;86.32
61906;BME280;47863;55.766;37.672;2024-02-16T05:08:50;101549.47;;;-8.76;86.25
61906;BME280;47863;55.766;37.672;2024-02-16T05:11:16;101499.16;;;-9.03;85.60
61906;BME280;47863;55.766;37.672;2024-02-16T05:13:41;101540.78;;;-8.71;87.19
61906;BME280;47863;55.766;37.672;2024-02-16T05:16:11;101554.66;;;-8.73;87.24
61906;BME280;47863;55.766;37.672;2024-02-16T05:18:37;101541.66;;;-8.73;86.93
61906;BME280;47863;55.766;37.672;2024-02-16T05:21:03;101518.25;;;-8.87;87.75
61906;BME280;47863;55.766;37.672;2024-02-16T05:23:29;101544.28;;;-8.70;88.37
61906;BME280;47863;55.766;37.672;2024-02-16T05:25:54;101538.19;;;-8.77;87.81
61906;BME280;47863;55.766;37.672;2024-02-16T05:28:20;101526.94;;;-8.82;88.01
61906;BME280;47863;55.766;37.672;2024-02-16T05:30:45;101543.38;;;-8.77;87.63
61906;BME280;47863;55.766;37.672;2024-02-16T05:33:11;101539.94;;;-8.74;87.41
61906;BME280;47863;55.766;37.672;2024-02-16T05:35:36;101520.84;;;-8.92;87.16
61906;BME280;47863;55.766;37.672;2024-02-16T05:38:06;101543.38;;;-8.75;87.71
61906;BME280;47863;55.766;37.672;2024-02-16T05:40:46;101565.06;;;-8.60;87.39
61906;BME280;47863;55.766;37.672;2024-02-16T05:43:19;101565.94;;;-8.64;86.52
61906;BME280;47863;55.766;37.672;2024-02-16T05:45:46;101568.56;;;-8.54;86.95
61906;BME280;47863;55.766;37.672;2024-02-16T05:48:12;101570.28;;;-8.56;86.96
61906;BME280;47863;55.766;37.672;2024-02-16T05:50:37;101544.25;;;-8.69;87.30
61906;BME280;47863;55.766;37.672;2024-02-16T05:53:03;101576.34;;;-8.58;87.05
61906;BME280;47863;55.766;37.672;2024-02-16T05:55:29;101560.69;;;-8.73;86.52
61906;BME280;47863;55.766;37.672;2024-02-16T05:57:54;101583.28;;;-8.53;86.91
61906;BME280;47863;55.766;37.672;2024-02-16T06:00:20;101550.31;;;-8.76;86.26
61906;BME280;47863;55.766;37.672;2024-02-16T06:02:47;101580.66;;;-8.53;86.49
61906;BME280;47863;55.766;37.672;2024-02-16T06:05:13;101590.25;;;-8.45;86.30
61906;BME280;47863;55.766;37.672;2024-02-16T06:07:38;101565.06;;;-8.55;86.11
61906;BME280;47863;55.766;37.672;2024-02-16T06:10:05;101584.16;;;-8.36;85.77
61906;BME280;47863;55.766;37.672;2024-02-16T06:12:38;101546.88;;;-8.60;85.69
61906;BME280;47863;55.766;37.672;2024-02-16T06:15:05;101583.31;;;-8.29;85.34
61906;BME280;47863;55.766;37.672;2024-02-16T06:17:31;101582.41;;;-8.28;85.43
61906;BME280;47863;55.766;37.672;2024-02-16T06:19:56;101574.63;;;-8.39;85.77
61906;BME280;47863;55.766;37.672;2024-02-16T06:22:22;101537.34;;;-8.64;85.46
61906;BME280;47863;55.766;37.672;2024-02-16T06:24:48;101604.09;;;-8.24;85.19
61906;BME280;47863;55.766;37.672;2024-02-16T06:27:13;101602.38;;;-8.25;85.44
61906;BME280;47863;55.766;37.672;2024-02-16T06:29:39;101558.16;;;-8.41;85.88
61906;BME280;47863;55.766;37.672;2024-02-16T06:32:04;101572.91;;;-8.30;86.02
61906;BME280;47863;55.766;37.672;2024-02-16T06:34:30;101539.13;;;-8.44;86.15
61906;BME280;47863;55.766;37.672;2024-02-16T06:36:57;101518.31;;;-8.50;85.89
61906;BME280;47863;55.766;37.672;2024-02-16T06:39:22;101556.44;;;-8.37;85.70
61906;BME280;47863;55.766;37.672;2024-02-16T06:41:48;101527.84;;;-8.48;85.67
61906;BME280;47863;55.766;37.672;2024-02-16T06:44:15;101585.06;;;-8.03;85.84
61906;BME280;47863;55.766;37.672;2024-02-16T06:46:43;101522.63;;;-8.40;85.90
61906;BME280;47863;55.766;37.672;2024-02-16T06:49:09;101583.31;;;-7.97;85.18
61906;BME280;47863;55.766;37.672;2024-02-16T06:51:35;101584.19;;;-7.88;85.51
61906;BME280;47863;55.766;37.672;2024-02-16T06:54:02;101591.97;;;-7.82;86.28
61906;BME280;47863;55.766;37.672;2024-02-16T06:56:29;101563.38;;;-7.93;86.35
61906;BME280;47863;55.766;37.672;2024-02-16T06:58:54;101530.44;;;-8.19;86.04
61906;BME280;47863;55.766;37.672;2024-02-16T07:01:20;101523.50;;;-8.26;86.27
61906;BME280;47863;55.766;37.672;2024-02-16T07:03:45;101580.72;;;-7.86;87.20
61906;BME280;47863;55.766;37.672;2024-02-16T07:06:12;101589.38;;;-7.88;87.40
61906;BME280;47863;55.766;37.672;2024-02-16T07:08:42;101585.91;;;-7.92;86.60
61906;BME280;47863;55.766;37.672;2024-02-16T07:11:11;101552.13;;;-8.13;86.46
61906;BME280;47863;55.766;37.672;2024-02-16T07:13:41;101579.84;;;-7.91;86.03
61906;BME280;47863;55.766;37.672;2024-02-16T07:16:08;101561.63;;;-7.94;86.82
61906;BME280;47863;55.766;37.672;2024-02-16T07:18:33;101543.44;;;-8.09;85.89
61906;BME280;47863;55.766;37.672;2024-02-16T07:20:59;101569.44;;;-7.89;85.73
61906;BME280;47863;55.766;37.672;2024-02-16T07:34:53;101533.78;;;-7.33;84.80
61906;BME280;47863;55.766;37.672;2024-02-16T07:37:19;101571.03;;;-7.18;84.94
61906;BME280;47863;55.766;37.672;2024-02-16T07:39:45;101575.41;;;-7.16;84.51
61906;BME280;47863;55.766;37.672;2024-02-16T07:42:10;101533.84;;;-7.52;85.23
61906;BME280;47863;55.766;37.672;2024-02-16T07:44:38;101570.22;;;-7.35;84.90
61906;BME280;47863;55.766;37.672;2024-02-16T07:47:04;101574.56;;;-7.29;84.83
61906;BME280;47863;55.766;37.672;2024-02-16T07:49:30;101569.34;;;-7.37;85.08
61906;BME280;47863;55.766;37.672;2024-02-16T07:51:55;101578.91;;;-7.30;85.85
61906;BME280;47863;55.766;37.672;2024-02-16T07:54:21;101543.34;;;-7.51;85.71
61906;BME280;47863;55.766;37.672;2024-02-16T07:56:46;101577.19;;;-7.32;86.14
61906;BME280;47863;55.766;37.672;2024-02-16T07:59:12;101586.72;;;-7.30;85.59
61906;BME280;47863;55.766;37.672;2024-02-16T08:01:38;101587.56;;;-7.26;85.66
61906;BME280;47863;55.766;37.672;2024-02-16T08:04:04;101584.94;;;-7.22;85.76
61906;BME280;47863;55.766;37.672;2024-02-16T08:06:30;101590.16;;;-7.20;84.84
61906;BME280;47863;55.766;37.672;2024-02-16T08:08:55;101535.56;;;-7.57;84.63
61906;BME280;47863;55.766;37.672;2024-02-16T08:11:21;101550.31;;;-7.48;84.88
61906;BME280;47863;55.766;37.672;2024-02-16T08:13:47;101600.56;;;-7.20;84.51
61906;BME280;47863;55.766;37.672;2024-02-16T08:16:13;101602.28;;;-7.18;84.42
61906;BME280;47863;55.766;37.672;2024-02-16T08:18:38;101562.44;;;-7.41;84.88
61906;BME280;47863;55.766;37.672;2024-02-16T08:21:04;101571.97;;;-7.34;84.35
61906;BME280;47863;55.766;37.672;2024-02-16T08:23:29;101589.28;;;-7.19;85.21
61906;BME280;47863;55.766;37.672;2024-02-16T08:25:56;101581.50;;;-7.30;84.43
61906;BME280;47863;55.766;37.672;2024-02-16T08:28:22;101566.75;;;-7.37;84.03
61906;BME280;47863;55.766;37.672;2024-02-16T08:30:48;101592.75;;;-7.20;84.17
61906;BME280;47863;55.766;37.672;2024-02-16T08:33:13;101571.94;;;-7.26;83.99
61906;BME280;47863;55.766;37.672;2024-02-16T08:35:39;101592.72;;;-7.05;83.52
61906;BME280;47863;55.766;37.672;2024-02-16T08:38:04;101588.31;;;-6.93;83.89
61906;BME280;47863;55.766;37.672;2024-02-16T08:40:30;101590.03;;;-6.89;83.72
61906;BME280;47863;55.766;37.672;2024-02-16T08:42:55;101589.16;;;-6.82;84.32
61906;BME280;47863;55.766;37.672;2024-02-16T08:45:21;101584.81;;;-6.85;83.96
61906;BME280;47863;55.766;37.672;2024-02-16T08:47:46;101583.09;;;-6.90;83.13
61906;BME280;47863;55.766;37.672;2024-02-16T08:50:12;101579.59;;;-6.89;83.10
61906;BME280;47863;55.766;37.672;2024-02-16T08:52:38;101572.66;;;-6.86;83.57
61906;BME280;47863;55.766;37.672;2024-02-16T08:55:04;101564.88;;;-6.92;84.02
61906;BME280;47863;55.766;37.672;2024-02-16T08:57:31;101586.50;;;-6.78;83.57
61906;BME280;47863;55.766;37.672;2024-02-16T08:59:57;101589.09;;;-6.76;84.69
61906;BME280;47863;55.766;37.672;2024-02-16T09:02:22;101602.09;;;-6.71;84.35
61906;BME280;47863;55.766;37.672;2024-02-16T09:04:48;101602.09;;;-6.70;85.45
61906;BME280;47863;55.766;37.672;2024-02-16T09:07:13;101600.41;;;-6.69;85.18
61906;BME280;47863;55.766;37.672;2024-02-16T09:09:39;101607.34;;;-6.74;85.28
61906;BME280;47863;55.766;37.672;2024-02-16T09:12:05;101598.66;;;-6.73;84.92
61906;BME280;47863;55.766;37.672;2024-02-16T09:14:30;101564.88;;;-6.92;85.74
61906;BME280;47863;55.766;37.672;2024-02-16T09:16:57;101594.31;;;-6.73;86.16
61906;BME280;47863;55.766;37.672;2024-02-16T09:19:22;101592.50;;;-6.60;87.61
61906;BME280;47863;55.766;37.672;2024-02-16T09:21:49;101606.41;;;-6.53;87.49
61906;BME280;47863;55.766;37.672;2024-02-16T09:24:19;101598.56;;;-6.53;87.30
61906;BME280;47863;55.766;37.672;2024-02-16T09:26:45;101603.75;;;-6.47;86.89
61906;BME280;47863;55.766;37.672;2024-02-16T09:29:14;101602.84;;;-6.42;86.81
61906;BME280;47863;55.766;37.672;2024-02-16T09:31:41;101594.13;;;-6.38;86.58
61906;BME280;47863;55.766;37.672;2024-02-16T09:34:06;101552.50;;;-6.58;85.37
61906;BME280;47863;55.766;37.672;2024-02-16T09:36:32;101580.16;;;-6.27;85.50
61906;BME280;47863;55.766;37.672;2024-02-16T09:38:57;101560.25;;;-6.42;85.11
61906;BME280;47863;55.766;37.672;2024-02-16T09:41:23;101548.91;;;-6.38;84.83
61906;BME280;47863;55.766;37.672;2024-02-16T09:43:48;101570.50;;;-6.16;85.26
61906;BME280;47863;55.766;37.672;2024-02-16T09:46:15;101574.75;;;-6.04;85.06
61906;BME280;47863;55.766;37.672;2024-02-16T09:48:43;101574.72;;;-6.00;84.87
61906;BME280;47863;55.766;37.672;2024-02-16T09:51:13;101579.81;;;-5.89;85.56
61906;BME280;47863;55.766;37.672;2024-02-16T09:53:40;101525.22;;;-6.06;84.89
61906;BME280;47863;55.766;37.672;2024-02-16T09:56:06;101539.69;;;-5.79;84.84
61906;BME280;47863;55.766;37.672;2024-02-16T09:58:34;101537.09;;;-5.79;84.86
61906;BME280;47863;55.766;37.672;2024-02-16T10:01:00;101537.91;;;-5.70;84.96
61906;BME280;47863;55.766;37.672;2024-02-16T10:03:26;101539.63;;;-5.68;84.21
61906;BME280;47863;55.766;37.672;2024-02-16T10:05:52;101533.50;;;-5.65;84.76
61906;BME280;47863;55.766;37.672;2024-02-16T10:08:19;101540.44;;;-5.64;83.68
61906;BME280;47863;55.766;37.672;2024-02-16T10:10:45;101541.38;;;-5.71;83.79
61906;BME280;47863;55.766;37.672;2024-02-16T10:13:10;101514.50;;;-5.78;84.00
61906;BME280;47863;55.766;37.672;2024-02-16T10:15:37;101536.94;;;-5.63;84.29
61906;BME280;47863;55.766;37.672;2024-02-16T10:18:03;101537.00;;;-5.68;84.06
61906;BME280;47863;55.766;37.672;2024-02-16T10:20:29;101542.22;;;-5.69;84.09
61906;BME280;47863;55.766;37.672;2024-02-16T10:23:03;101532.75;;;-5.78;84.42
61906;BME280;47863;55.766;37.672;2024-02-16T10:25:29;101526.75;;;-5.88;86.45
61906;BME280;47863;55.766;37.672;2024-02-16T10:27:55;101515.47;;;-5.93;88.65
61906;BME280;47863;55.766;37.672;2024-02-16T10:30:29;101533.75;;;-5.94;88.72
61906;BME280;47863;55.766;37.672;2024-02-16T10:32:57;101519.16;;;-6.11;88.05
61906;BME280;47863;55.766;37.672;2024-02-16T10:35:25;101524.31;;;-6.05;87.57
61906;BME280;47863;55.766;37.672;2024-02-16T10:37:52;101526.84;;;-5.95;87.80
61906;BME280;47863;55.766;37.672;2024-02-16T10:40:20;101520.84;;;-6.02;87.23
61906;BME280;47863;55.766;37.672;2024-02-16T10:42:49;101529.47;;;-5.95;86.59
61906;BME280;47863;55.766;37.672;2024-02-16T10:45:16;101531.22;;;-5.96;84.83
61906;BME280;47863;55.766;37.672;2024-02-16T10:47:42;101537.16;;;-5.85;86.24
61906;BME280;47863;55.766;37.672;2024-02-16T10:50:08;101542.34;;;-5.82;86.03
61906;BME280;47863;55.766;37.672;2024-02-16T10:52:36;101511.16;;;-5.94;85.86
61906;BME280;47863;55.766;37.672;2024-02-16T10:55:05;101531.84;;;-5.75;86.13
61906;BME280;47863;55.766;37.672;2024-02-16T10:57:31;101531.03;;;-5.81;85.96
61906;BME280;47863;55.766;37.672;2024-02-16T10:59:58;101537.06;;;-5.72;86.23
61906;BME280;47863;55.766;37.672;2024-02-16T11:02:25;101542.25;;;-5.71;85.22
61906;BME280;47863;55.766;37.672;2024-02-16T11:04:52;101524.88;;;-5.75;85.80
61906;BME280;47863;55.766;37.672;2024-02-16T11:07:19;101545.69;;;-5.66;85.75
61906;BME280;47863;55.766;37.672;2024-02-16T11:09:46;101533.59;;;-5.76;86.09
61906;BME280;47863;55.766;37.672;2024-02-16T11:12:15;101548.34;;;-5.72;86.60
61906;BME280;47863;55.766;37.672;2024-02-16T11:14:45;101524.16;;;-5.88;85.92
61906;BME280;47863;55.766;37.672;2024-02-16T11:17:19;101546.69;;;-5.81;86.61
61906;BME280;47863;55.766;37.672;2024-02-16T11:19:46;101558.06;;;-5.86;86.84
61906;BME280;47863;55.766;37.672;2024-02-16T11:22:16;101519.94;;;-5.98;86.14
61906;BME280;47863;55.766;37.672;2024-02-16T11:24:44;101535.34;;;-5.76;86.61
61906;BME280;47863;55.766;37.672;2024-02-16T11:27:11;101529.19;;;-5.71;88.30
61906;BME280;47863;55.766;37.672;2024-02-16T11:29:38;101497.28;;;-5.96;87.32
61906;BME280;47863;55.766;37.672;2024-02-16T11:32:05;101502.44;;;-5.91;86.86
61906;BME280;47863;55.766;37.672;2024-02-16T11:34:31;101522.31;;;-5.76;86.88
61906;BME280;47863;55.766;37.672;2024-02-16T11:36:58;101534.31;;;-5.60;86.68
61906;BME280;47863;55.766;37.672;2024-02-16T11:39:25;101530.84;;;-5.61;86.05
61906;BME280;47863;55.766;37.672;2024-02-16T11:42:02;101517.81;;;-5.65;85.73
61906;BME280;47863;55.766;37.672;2024-02-16T11:44:30;101526.50;;;-5.63;86.19
61906;BME280;47863;55.766;37.672;2024-02-16T11:46:57;101483.31;;;-5.92;85.04
61906;BME280;47863;55.766;37.672;2024-02-16T11:49:23;101522.25;;;-5.70;85.83
61906;BME280;47863;55.766;37.672;2024-02-16T11:51:48;101523.16;;;-5.74;84.97
61906;BME280;47863;55.766;37.672;2024-02-16T11:54:14;101515.28;;;-5.70;85.36
61906;BME280;47863;55.766;37.672;2024-02-16T11:56:45;101525.63;;;-5.62;84.92
61906;BME280;47863;55.766;37.672;2024-02-16T11:59:13;101523.91;;;-5.63;83.52
61906;BME280;47863;55.766;37.672;2024-02-16T12:01:57;101510.81;;;-5.62;83.73
61906;BME280;47863;55.766;37.672;2024-02-16T12:04:26;101530.72;;;-5.50;83.97
61906;BME280;47863;55.766;37.672;2024-02-16T12:07:01;101527.19;;;-5.47;84.09
61906;BME280;47863;55.766;37.672;2024-02-16T12:09:28;101537.66;;;-5.47;84.60
61906;BME280;47863;55.766;37.672;2024-02-16T12:11:54;101531.56;;;-5.46;84.56
61906;BME280;47863;55.766;37.672;2024-02-16T12:14:24;101518.59;;;-5.54;84.36
61906;BME280;47863;55.766;37.672;2024-02-16T12:16:55;101519.44;;;-5.52;84.71
61906;BME280;47863;55.766;37.672;2024-02-16T12:19:21;101530.72;;;-5.47;84.72
61906;BME280;47863;55.766;37.672;2024-02-16T12:21:54;101530.66;;;-5.44;84.97
61906;BME280;47863;55.766;37.672;2024-02-16T12:24:21;101528.94;;;-5.46;84.57
61906;BME280;47863;55.766;37.672;2024-02-16T12:26:47;101541.94;;;-5.39;84.00
61906;BME280;47863;55.766;37.672;2024-02-16T12:29:13;101532.34;;;-5.40;83.97
61906;BME280;47863;55.766;37.672;2024-02-16T12:31:45;101518.50;;;-5.48;83.39
61906;BME280;47863;55.766;37.672;2024-02-16T12:34:13;101537.56;;;-5.38;83.63
61906;BME280;47863;55.766;37.672;2024-02-16T12:36:39;101532.41;;;-5.43;84.46
61906;BME280;47863;55.766;37.672;2024-02-16T12:39:06;101510.81;;;-5.62;84.41
61906;BME280;47863;55.766;37.672;2024-02-16T12:41:35;101506.59;;;-5.72;84.20
61906;BME280;47863;55.766;37.672;2024-02-16T12:44:01;101542.94;;;-5.52;84.38
61906;BME280;47863;55.766;37.672;2024-02-16T12:46:27;101510.13;;;-5.79;84.07
61906;BME280;47863;55.766;37.672;2024-02-16T12:48:53;101550.91;;;-5.64;84.35